sensor_id;sensor_type;location;lat;lon;timestamp;pressure;altitude;pressure_sealevel;temperature;humidity
26697;BME280;14312;52.614;13.496;2023-03-21T00:02:35;101012.84;;;12.36;59.40
26697;BME280;14312;52.614;13.496;2023-03-21T00:05:21;101012.06;;;12.36;59.34
26697;BME280;14312;52.614;13.496;2023-03-21T00:08:07;101005.09;;;12.35;59.49
26697;BME280;14312;52.614;13.496;2023-03-21T00:10:59;101013.13;;;12.35;59.21
26697;BME280;14312;52.614;13.496;2023-03-21T00:13:45;101006.38;;;12.32;59.23
26697;BME280;14312;52.614;13.496;2023-03-21T00:16:31;101009.28;;;12.31;59.26
26697;BME280;14312;52.614;13.496;2023-03-21T00:19:17;101010.34;;;12.30;59.22
26697;BME280;14312;52.614;13.496;2023-03-21T00:22:06;100992.94;;;12.27;59.29
26697;BME280;14312;52.614;13.496;2023-03-21T00:24:53;101002.81;;;12.27;59.37
26697;BME280;14312;52.614;13.496;2023-03-21T00:27:39;101002.81;;;12.27;59.34
26697;BME280;14312;52.614;13.496;2023-03-21T00:30:25;100997.47;;;12.27;59.22
26697;BME280;14312;52.614;13.496;2023-03-21T00:33:11;100992.13;;;12.27;59.30
26697;BME280;14312;52.614;13.496;2023-03-21T00:35:59;100987.03;;;12.25;59.23
26697;BME280;14312;52.614;13.496;2023-03-21T00:38:45;100993.41;;;12.24;59.21
26697;BME280;14312;52.614;13.496;2023-03-21T00:41:31;100988.88;;;12.25;59.13
26697;BME280;14312;52.614;13.496;2023-03-21T00:44:17;100980.28;;;12.23;59.25
26697;BME280;14312;52.614;13.496;2023-03-21T00:47:03;100988.56;;;12.21;59.02
26697;BME280;14312;52.614;13.496;2023-03-21T00:49:50;100988.81;;;12.20;59.40
26697;BME280;14312;52.614;13.496;2023-03-21T00:52:36;100981.84;;;12.19;59.11
26697;BME280;14312;52.614;13.496;2023-03-21T00:55:23;100980.22;;;12.18;59.31
26697;BME280;14312;52.614;13.496;2023-03-21T00:58:09;100978.59;;;12.16;59.33
26697;BME280;14312;52.614;13.496;2023-03-21T01:00:55;100980.72;;;12.14;59.06
26697;BME280;14312;52.614;13.496;2023-03-21T01:03:42;100978.03;;;12.14;59.27
26697;BME280;14312;52.614;13.496;2023-03-21T01:06:35;100981.75;;;12.13;59.14
26697;BME280;14312;52.614;13.496;2023-03-21T01:09:25;100978.50;;;12.11;59.24
26697;BME280;14312;52.614;13.496;2023-03-21T01:12:11;100967.25;;;12.09;59.45
26697;BME280;14312;52.614;13.496;2023-03-21T01:14:57;100973.63;;;12.08;59.44
26697;BME280;14312;52.614;13.496;2023-03-21T01:17:43;100970.41;;;12.06;59.28
26697;BME280;14312;52.614;13.496;2023-03-21T01:20:29;100967.16;;;12.04;59.25
26697;BME280;14312;52.614;13.496;2023-03-21T01:23:16;100978.91;;;12.03;59.43
26697;BME280;14312;52.614;13.496;2023-03-21T01:26:02;100975.09;;;11.99;59.33
26697;BME280;14312;52.614;13.496;2023-03-21T01:28:49;100971.84;;;11.97;59.43
26697;BME280;14312;52.614;13.496;2023-03-21T01:31:35;100973.72;;;11.97;59.47
26697;BME280;14312;52.614;13.496;2023-03-21T01:34:21;100971.28;;;11.95;59.35
26697;BME280;14312;52.614;13.496;2023-03-21T01:37:07;100974.44;;;11.92;59.38
26697;BME280;14312;52.614;13.496;2023-03-21T01:39:52;100967.47;;;11.91;59.47
26697;BME280;14312;52.614;13.496;2023-03-21T01:42:38;100971.19;;;11.90;59.36
26697;BME280;14312;52.614;13.496;2023-03-21T01:48:59;100979.69;;;11.87;59.68
26697;BME280;14312;52.614;13.496;2023-03-21T01:52:00;100974.34;;;11.87;59.68
26697;BME280;14312;52.614;13.496;2023-03-21T01:54:47;100970.31;;;11.85;59.61
26697;BME280;14312;52.614;13.496;2023-03-21T01:57:38;100968.44;;;11.85;59.64
26697;BME280;14312;52.614;13.496;2023-03-21T02:00:26;100966.81;;;11.84;59.52
26697;BME280;14312;52.614;13.496;2023-03-21T02:03:14;100958.22;;;11.82;59.51
26697;BME280;14312;52.614;13.496;2023-03-21T02:06:05;100970.53;;;11.83;59.50
26697;BME280;14312;52.614;13.496;2023-03-21T02:08:53;100971.34;;;11.84;59.77
26697;BME280;14312;52.614;13.496;2023-03-21T02:11:39;100966.81;;;11.84;59.71
26697;BME280;14312;52.614;13.496;2023-03-21T02:14:26;100961.47;;;11.84;59.79
26697;BME280;14312;52.614;13.496;2023-03-21T02:23:48;100963.34;;;11.84;59.65
26697;BME280;14312;52.614;13.496;2023-03-21T02:27:37;100969.72;;;11.83;59.65
26697;BME280;14312;52.614;13.496;2023-03-21T02:39:43;100966.16;;;11.77;59.64
26697;BME280;14312;52.614;13.496;2023-03-21T02:42:52;100958.16;;;11.77;59.85
26697;BME280;14312;52.614;13.496;2023-03-21T02:45:49;100957.56;;;11.75;59.85
26697;BME280;14312;52.614;13.496;2023-03-21T02:48:51;100958.38;;;11.75;59.77
26697;BME280;14312;52.614;13.496;2023-03-21T02:51:39;100962.91;;;11.75;59.77
26697;BME280;14312;52.614;13.496;2023-03-21T02:54:27;100964.97;;;11.73;59.76
26697;BME280;14312;52.614;13.496;2023-03-21T02:57:18;100963.97;;;11.74;59.88
26697;BME280;14312;52.614;13.496;2023-03-21T03:00:05;100964.97;;;11.73;59.87
26697;BME280;14312;52.614;13.496;2023-03-21T03:02:56;100964.97;;;11.73;59.90
26697;BME280;14312;52.614;13.496;2023-03-21T03:05:47;100966.03;;;11.72;59.85
26697;BME280;14312;52.614;13.496;2023-03-21T03:11:46;100958.50;;;11.69;59.82
26697;BME280;14312;52.614;13.496;2023-03-21T03:14:44;100961.41;;;11.67;59.69
26697;BME280;14312;52.614;13.496;2023-03-21T03:24:40;100973.38;;;11.65;60.16
26697;BME280;14312;52.614;13.496;2023-03-21T03:27:34;100975.47;;;11.63;60.11
26697;BME280;14312;52.614;13.496;2023-03-21T03:30:24;100969.31;;;11.62;60.00
26697;BME280;14312;52.614;13.496;2023-03-21T03:33:12;100966.88;;;11.61;60.12
26697;BME280;14312;52.614;13.496;2023-03-21T03:36:02;100967.94;;;11.60;60.06
26697;BME280;14312;52.614;13.496;2023-03-21T03:38:49;100978.38;;;11.61;60.22
26697;BME280;14312;52.614;13.496;2023-03-21T03:44:37;100971.91;;;11.57;60.21
26697;BME280;14312;52.614;13.496;2023-03-21T03:47:48;100974.31;;;11.59;60.60
26697;BME280;14312;52.614;13.496;2023-03-21T03:50:40;100980.16;;;11.56;60.57
26697;BME280;14312;52.614;13.496;2023-03-21T03:53:41;100976.44;;;11.57;60.80
26697;BME280;14312;52.614;13.496;2023-03-21T03:56:29;100974.00;;;11.55;60.37
26697;BME280;14312;52.614;13.496;2023-03-21T03:59:16;100972.38;;;11.54;60.45
26697;BME280;14312;52.614;13.496;2023-03-21T04:02:09;100976.91;;;11.54;60.40
26697;BME280;14312;52.614;13.496;2023-03-21T04:04:55;100971.56;;;11.54;60.50
26697;BME280;14312;52.614;13.496;2023-03-21T04:07:42;100971.56;;;11.54;60.69
26697;BME280;14312;52.614;13.496;2023-03-21T04:10:28;100976.91;;;11.54;60.58
26697;BME280;14312;52.614;13.496;2023-03-21T04:13:14;100969.94;;;11.53;60.75
26697;BME280;14312;52.614;13.496;2023-03-21T04:16:00;100972.03;;;11.51;60.64
26697;BME280;14312;52.614;13.496;2023-03-21T04:18:46;100968.56;;;11.50;60.69
26697;BME280;14312;52.614;13.496;2023-03-21T04:21:32;100967.97;;;11.48;60.75
26697;BME280;14312;52.614;13.496;2023-03-21T04:24:18;100969.25;;;11.46;60.74
26697;BME280;14312;52.614;13.496;2023-03-21T04:27:04;100970.56;;;11.43;60.87
26697;BME280;14312;52.614;13.496;2023-03-21T04:29:50;100963.84;;;11.41;60.91
26697;BME280;14312;52.614;13.496;2023-03-21T04:32:37;100969.16;;;11.41;61.02
26697;BME280;14312;52.614;13.496;2023-03-21T04:35:27;100964.28;;;11.37;60.74
26697;BME280;14312;52.614;13.496;2023-03-21T04:38:13;100970.69;;;11.36;61.34
26697;BME280;14312;52.614;13.496;2023-03-21T04:40:59;100967.44;;;11.34;61.19
26697;BME280;14312;52.614;13.496;2023-03-21T04:43:45;100976.50;;;11.33;61.32
26697;BME280;14312;52.614;13.496;2023-03-21T04:46:33;100974.88;;;11.32;61.52
26697;BME280;14312;52.614;13.496;2023-03-21T04:49:19;100971.63;;;11.30;61.47
26697;BME280;14312;52.614;13.496;2023-03-21T04:52:06;100980.69;;;11.29;61.50
26697;BME280;14312;52.614;13.496;2023-03-21T04:54:51;100973.75;;;11.28;61.54
26697;BME280;14312;52.614;13.496;2023-03-21T04:57:37;100985.44;;;11.27;61.46
26697;BME280;14312;52.614;13.496;2023-03-21T05:00:23;100970.47;;;11.26;61.63
26697;BME280;14312;52.614;13.496;2023-03-21T05:03:10;100973.38;;;11.25;61.86
26697;BME280;14312;52.614;13.496;2023-03-21T05:06:06;100977.91;;;11.24;61.93
26697;BME280;14312;52.614;13.496;2023-03-21T05:08:54;100978.94;;;11.23;61.99
26697;BME280;14312;52.614;13.496;2023-03-21T05:11:44;100979.19;;;11.22;61.94
26697;BME280;14312;52.614;13.496;2023-03-21T05:14:30;100973.06;;;11.21;61.99
26697;BME280;14312;52.614;13.496;2023-03-21T05:17:16;100979.44;;;11.20;61.97
26697;BME280;14312;52.614;13.496;2023-03-21T05:20:09;100975.13;;;11.19;62.20
26697;BME280;14312;52.614;13.496;2023-03-21T05:22:56;100975.94;;;11.20;62.19
26697;BME280;14312;52.614;13.496;2023-03-21T05:25:42;100979.66;;;11.19;62.13
26697;BME280;14312;52.614;13.496;2023-03-21T05:28:28;100972.47;;;11.19;62.39
26697;BME280;14312;52.614;13.496;2023-03-21T05:31:17;100971.66;;;11.19;62.37
26697;BME280;14312;52.614;13.496;2023-03-21T05:34:03;100967.38;;;11.18;62.49
26697;BME280;14312;52.614;13.496;2023-03-21T05:36:49;100967.84;;;11.15;62.60
26697;BME280;14312;52.614;13.496;2023-03-21T05:39:35;100974.56;;;11.17;62.45
26697;BME280;14312;52.614;13.496;2023-03-21T05:42:21;100968.19;;;11.18;62.59
26697;BME280;14312;52.614;13.496;2023-03-21T05:45:07;100977.22;;;11.17;62.55
26697;BME280;14312;52.614;13.496;2023-03-21T05:47:53;100977.22;;;11.17;62.79
26697;BME280;14312;52.614;13.496;2023-03-21T05:50:39;100971.88;;;11.17;62.72
26697;BME280;14312;52.614;13.496;2023-03-21T05:53:26;100978.03;;;11.18;62.73
26697;BME280;14312;52.614;13.496;2023-03-21T05:56:12;100984.19;;;11.18;62.95
26697;BME280;14312;52.614;13.496;2023-03-21T05:58:57;100978.84;;;11.18;62.94
26697;BME280;14312;52.614;13.496;2023-03-21T06:01:43;100977.81;;;11.19;63.10
26697;BME280;14312;52.614;13.496;2023-03-21T06:04:30;100973.06;;;11.21;63.16
26697;BME280;14312;52.614;13.496;2023-03-21T06:07:16;100975.81;;;11.26;63.21
26697;BME280;14312;52.614;13.496;2023-03-21T06:10:03;100973.75;;;11.28;63.33
26697;BME280;14312;52.614;13.496;2023-03-21T06:12:49;100977.78;;;11.31;63.29
26697;BME280;14312;52.614;13.496;2023-03-21T06:15:35;100978.94;;;11.35;63.21
26697;BME280;14312;52.614;13.496;2023-03-21T06:18:21;100988.88;;;11.39;63.37
26697;BME280;14312;52.614;13.496;2023-03-21T06:21:07;100980.44;;;11.43;63.46
26697;BME280;14312;52.614;13.496;2023-03-21T06:23:53;100984.47;;;11.45;63.56
26697;BME280;14312;52.614;13.496;2023-03-21T06:26:39;100983.19;;;11.48;63.52
26697;BME280;14312;52.614;13.496;2023-03-21T06:29:27;100990.16;;;11.49;63.71
26697;BME280;14312;52.614;13.496;2023-03-21T06:32:13;100992.59;;;11.50;63.45
26697;BME280;14312;52.614;13.496;2023-03-21T06:34:59;100992.31;;;11.52;63.81
26697;BME280;14312;52.614;13.496;2023-03-21T06:37:45;100984.31;;;11.52;63.89
26697;BME280;14312;52.614;13.496;2023-03-21T06:40:33;100993.84;;;11.48;64.04
26697;BME280;14312;52.614;13.496;2023-03-21T06:43:20;100989.34;;;11.48;63.97
26697;BME280;14312;52.614;13.496;2023-03-21T06:46:06;100988.53;;;11.48;63.93
26697;BME280;14312;52.614;13.496;2023-03-21T06:48:52;100982.72;;;11.51;64.17
26697;BME280;14312;52.614;13.496;2023-03-21T06:51:39;100998.72;;;11.51;64.30
26697;BME280;14312;52.614;13.496;2023-03-21T06:54:25;100984.91;;;11.54;64.34
26697;BME280;14312;52.614;13.496;2023-03-21T06:57:11;100996.97;;;11.56;64.41
26697;BME280;14312;52.614;13.496;2023-03-21T06:59:58;100986.63;;;11.60;64.62
26697;BME280;14312;52.614;13.496;2023-03-21T07:02:44;100988.25;;;11.61;64.64
26697;BME280;14312;52.614;13.496;2023-03-21T07:05:34;100991.50;;;11.63;64.71
26697;BME280;14312;52.614;13.496;2023-03-21T07:08:20;100992.63;;;11.67;65.07
26697;BME280;14312;52.614;13.496;2023-03-21T07:11:07;100985.19;;;11.69;65.28
26697;BME280;14312;52.614;13.496;2023-03-21T07:13:53;100991.34;;;11.69;65.00
26697;BME280;14312;52.614;13.496;2023-03-21T07:16:39;100993.78;;;11.71;64.92
26697;BME280;14312;52.614;13.496;2023-03-21T07:19:25;100997.50;;;11.70;65.06
26697;BME280;14312;52.614;13.496;2023-03-21T07:22:12;101000.41;;;11.68;65.18
26697;BME280;14312;52.614;13.496;2023-03-21T07:24:58;100996.69;;;11.69;65.04
26697;BME280;14312;52.614;13.496;2023-03-21T07:27:44;100995.88;;;11.69;65.18
26697;BME280;14312;52.614;13.496;2023-03-21T07:30:31;101004.94;;;11.68;65.12
26697;BME280;14312;52.614;13.496;2023-03-21T07:33:17;100997.16;;;11.66;65.21
26697;BME280;14312;52.614;13.496;2023-03-21T07:36:03;101009.69;;;11.66;65.13
26697;BME280;14312;52.614;13.496;2023-03-21T07:38:53;101009.13;;;11.64;65.29
26697;BME280;14312;52.614;13.496;2023-03-21T07:41:39;101005.06;;;11.61;65.32
26697;BME280;14312;52.614;13.496;2023-03-21T07:44:25;101003.22;;;11.62;65.33
26697;BME280;14312;52.614;13.496;2023-03-21T07:47:11;101003.22;;;11.62;65.43
26697;BME280;14312;52.614;13.496;2023-03-21T07:49:58;101001.13;;;11.64;65.71
26697;BME280;14312;52.614;13.496;2023-03-21T07:52:43;101009.94;;;11.64;65.73
26697;BME280;14312;52.614;13.496;2023-03-21T07:55:30;101005.97;;;11.67;66.35
26697;BME280;14312;52.614;13.496;2023-03-21T07:58:19;101004.94;;;11.68;66.17
26697;BME280;14312;52.614;13.496;2023-03-21T08:01:05;100997.97;;;11.67;66.27
26697;BME280;14312;52.614;13.496;2023-03-21T08:03:51;100993.94;;;11.64;66.41
26697;BME280;14312;52.614;13.496;2023-03-21T08:06:38;101005.41;;;11.65;66.34
26697;BME280;14312;52.614;13.496;2023-03-21T08:09:24;100996.34;;;11.66;66.67
26697;BME280;14312;52.614;13.496;2023-03-21T08:12:10;101001.13;;;11.64;66.63
26697;BME280;14312;52.614;13.496;2023-03-21T08:14:56;100997.97;;;11.67;67.04
26697;BME280;14312;52.614;13.496;2023-03-21T08:17:43;101003.31;;;11.67;67.05
26697;BME280;14312;52.614;13.496;2023-03-21T08:20:30;101003.88;;;11.69;67.15
26697;BME280;14312;52.614;13.496;2023-03-21T08:23:16;101002.84;;;11.70;67.04
26697;BME280;14312;52.614;13.496;2023-03-21T08:26:02;101005.28;;;11.71;67.55
26697;BME280;14312;52.614;13.496;2023-03-21T08:28:51;101004.00;;;11.74;67.71
26697;BME280;14312;52.614;13.496;2023-03-21T08:31:38;100997.63;;;11.75;67.82
26697;BME280;14312;52.614;13.496;2023-03-21T08:34:24;101002.72;;;11.76;67.65
26697;BME280;14312;52.614;13.496;2023-03-21T08:37:12;101008.88;;;11.77;67.81
26697;BME280;14312;52.614;13.496;2023-03-21T08:39:58;100999.81;;;11.78;68.00
26697;BME280;14312;52.614;13.496;2023-03-21T08:42:44;101004.66;;;11.81;68.10
26697;BME280;14312;52.614;13.496;2023-03-21T08:45:31;101004.22;;;11.84;68.33
26697;BME280;14312;52.614;13.496;2023-03-21T08:48:18;101000.50;;;11.85;68.46
26697;BME280;14312;52.614;13.496;2023-03-21T08:51:04;101005.25;;;11.83;68.52
26697;BME280;14312;52.614;13.496;2023-03-21T08:53:50;101008.38;;;11.80;68.71
26697;BME280;14312;52.614;13.496;2023-03-21T08:56:36;101003.03;;;11.80;68.67
26697;BME280;14312;52.614;13.496;2023-03-21T08:59:22;101005.97;;;11.79;68.91
26697;BME280;14312;52.614;13.496;2023-03-21T09:02:13;101010.00;;;11.81;69.08
26697;BME280;14312;52.614;13.496;2023-03-21T09:05:00;101000.16;;;11.82;69.32
26697;BME280;14312;52.614;13.496;2023-03-21T09:07:46;101003.72;;;11.87;69.46
26697;BME280;14312;52.614;13.496;2023-03-21T09:10:32;101008.13;;;11.93;69.48
26697;BME280;14312;52.614;13.496;2023-03-21T09:13:18;101001.81;;;11.99;69.24
26697;BME280;14312;52.614;13.496;2023-03-21T09:16:04;101008.78;;;12.00;69.07
26697;BME280;14312;52.614;13.496;2023-03-21T09:18:50;101005.03;;;12.01;69.27
26697;BME280;14312;52.614;13.496;2023-03-21T09:21:40;101006.44;;;12.04;69.17
26697;BME280;14312;52.614;13.496;2023-03-21T09:24:26;101005.97;;;12.07;69.30
26697;BME280;14312;52.614;13.496;2023-03-21T09:27:15;101004.88;;;12.08;69.11
26697;BME280;14312;52.614;13.496;2023-03-21T09:30:04;101005.69;;;12.08;69.21
26697;BME280;14312;52.614;13.496;2023-03-21T09:32:50;101006.78;;;12.07;69.16
26697;BME280;14312;52.614;13.496;2023-03-21T09:35:38;101001.50;;;12.12;69.40
26697;BME280;14312;52.614;13.496;2023-03-21T09:38:24;101002.63;;;12.16;69.29
26697;BME280;14312;52.614;13.496;2023-03-21T09:53:07;100999.41;;;12.31;69.95
26697;BME280;14312;52.614;13.496;2023-03-21T09:55:54;100993.09;;;12.37;70.29
26697;BME280;14312;52.614;13.496;2023-03-21T09:58:45;101002.03;;;12.43;69.98
26697;BME280;14312;52.614;13.496;2023-03-21T10:01:39;100996.53;;;12.49;69.91
26697;BME280;14312;52.614;13.496;2023-03-21T10:04:30;100992.53;;;12.52;69.74
26697;BME280;14312;52.614;13.496;2023-03-21T10:07:17;100992.63;;;12.57;69.86
26697;BME280;14312;52.614;13.496;2023-03-21T10:10:05;100986.31;;;12.63;69.75
26697;BME280;14312;52.614;13.496;2023-03-21T10:12:53;100988.56;;;12.71;69.78
26697;BME280;14312;52.614;13.496;2023-03-21T10:15:39;100989.69;;;12.75;69.69
26697;BME280;14312;52.614;13.496;2023-03-21T10:18:28;100987.06;;;12.80;69.36
26697;BME280;14312;52.614;13.496;2023-03-21T10:21:26;100977.44;;;12.79;69.10
26697;BME280;14312;52.614;13.496;2023-03-21T10:24:15;100976.38;;;12.80;69.31
26697;BME280;14312;52.614;13.496;2023-03-21T10:27:03;100975.91;;;12.83;69.50
26697;BME280;14312;52.614;13.496;2023-03-21T10:29:50;100978.34;;;12.85;69.36
26697;BME280;14312;52.614;13.496;2023-03-21T10:32:38;100973.78;;;12.85;69.57
26697;BME280;14312;52.614;13.496;2023-03-21T10:35:24;100969.00;;;12.87;69.41
26697;BME280;14312;52.614;13.496;2023-03-21T10:38:16;100971.41;;;12.89;69.39
26697;BME280;14312;52.614;13.496;2023-03-21T10:41:02;100970.38;;;12.90;69.34
26697;BME280;14312;52.614;13.496;2023-03-21T10:44:08;100966.88;;;12.89;69.17
26697;BME280;14312;52.614;13.496;2023-03-21T10:47:07;100961.78;;;12.88;69.44
26697;BME280;14312;52.614;13.496;2023-03-21T10:49:53;100967.47;;;12.91;69.65
26697;BME280;14312;52.614;13.496;2023-03-21T10:52:50;100958.91;;;12.94;69.41
26697;BME280;14312;52.614;13.496;2023-03-21T10:55:40;100962.72;;;12.99;69.40
26697;BME280;14312;52.614;13.496;2023-03-21T10:58:29;100961.41;;;13.01;69.39
26697;BME280;14312;52.614;13.496;2023-03-21T11:01:26;100959.53;;;13.02;69.50
26697;BME280;14312;52.614;13.496;2023-03-21T11:04:17;100960.13;;;13.04;69.36
26697;BME280;14312;52.614;13.496;2023-03-21T11:07:05;100955.88;;;13.08;69.60
26697;BME280;14312;52.614;13.496;2023-03-21T11:09:54;100960.28;;;13.14;69.40
26697;BME280;14312;52.614;13.496;2023-03-21T11:12:45;100954.44;;;13.17;69.18
26697;BME280;14312;52.614;13.496;2023-03-21T11:15:56;100953.94;;;13.20;68.95
26697;BME280;14312;52.614;13.496;2023-03-21T11:18:48;100944.84;;;13.21;69.19
26697;BME280;14312;52.614;13.496;2023-03-21T11:21:35;100948.06;;;13.23;69.05
26697;BME280;14312;52.614;13.496;2023-03-21T11:24:29;100950.03;;;13.27;68.80
26697;BME280;14312;52.614;13.496;2023-03-21T11:27:17;100939.59;;;13.31;68.59
26697;BME280;14312;52.614;13.496;2023-03-21T11:30:04;100941.22;;;13.32;68.72
26697;BME280;14312;52.614;13.496;2023-03-21T11:32:53;100936.97;;;13.36;68.46
26697;BME280;14312;52.614;13.496;2023-03-21T11:35:40;100939.75;;;13.41;68.32
26697;BME280;14312;52.614;13.496;2023-03-21T11:38:51;100931.75;;;13.46;68.01
26697;BME280;14312;52.614;13.496;2023-03-21T11:41:39;100932.25;;;13.43;68.03
26697;BME280;14312;52.614;13.496;2023-03-21T11:44:27;100927.50;;;13.50;68.09
26697;BME280;14312;52.614;13.496;2023-03-21T11:47:14;100927.00;;;13.53;67.79
26697;BME280;14312;52.614;13.496;2023-03-21T11:50:00;100914.19;;;13.55;67.71
26697;BME280;14312;52.614;13.496;2023-03-21T11:53:02;100910.97;;;13.58;67.69
26697;BME280;14312;52.614;13.496;2023-03-21T11:58:45;100906.81;;;13.67;67.85
26697;BME280;14312;52.614;13.496;2023-03-21T12:05:03;100907.19;;;13.81;67.58
26697;BME280;14312;52.614;13.496;2023-03-21T12:25:31;100877.66;;;14.40;66.64
26697;BME280;14312;52.614;13.496;2023-03-21T12:38:08;100868.44;;;14.78;65.72
26697;BME280;14312;52.614;13.496;2023-03-21T12:43:59;100863.44;;;14.92;64.83
26697;BME280;14312;52.614;13.496;2023-03-21T12:47:20;100864.78;;;14.99;64.72
26697;BME280;14312;52.614;13.496;2023-03-21T12:50:29;100856.22;;;14.97;64.79
26697;BME280;14312;52.614;13.496;2023-03-21T12:56:14;100853.00;;;15.05;64.25
26697;BME280;14312;52.614;13.496;2023-03-21T12:59:24;100846.56;;;15.06;64.23
26697;BME280;14312;52.614;13.496;2023-03-21T13:08:14;100833.69;;;15.03;63.40
26697;BME280;14312;52.614;13.496;2023-03-21T13:11:04;100822.38;;;14.96;63.99
26697;BME280;14312;52.614;13.496;2023-03-21T13:14:04;100828.81;;;14.95;63.88
26697;BME280;14312;52.614;13.496;2023-03-21T13:16:54;100829.88;;;14.94;64.23
26697;BME280;14312;52.614;13.496;2023-03-21T13:19:47;100816.47;;;14.94;64.26
26697;BME280;14312;52.614;13.496;2023-03-21T13:22:36;100816.72;;;14.93;64.33
26697;BME280;14312;52.614;13.496;2023-03-21T13:25:23;100821.56;;;14.96;64.30
26697;BME280;14312;52.614;13.496;2023-03-21T13:28:33;100804.66;;;14.95;64.30
26697;BME280;14312;52.614;13.496;2023-03-21T13:31:23;100813.00;;;14.99;64.53
26697;BME280;14312;52.614;13.496;2023-03-21T13:34:11;100813.78;;;14.99;64.10
26697;BME280;14312;52.614;13.496;2023-03-21T13:37:00;100807.91;;;14.97;63.91
26697;BME280;14312;52.614;13.496;2023-03-21T13:39:48;100799.84;;;14.97;63.68
26697;BME280;14312;52.614;13.496;2023-03-21T13:42:34;100804.66;;;14.95;63.78
26697;BME280;14312;52.614;13.496;2023-03-21T13:48:39;100792.06;;;14.91;63.88
26697;BME280;14312;52.614;13.496;2023-03-21T13:57:36;100789.34;;;14.80;64.55
26697;BME280;14312;52.614;13.496;2023-03-21T14:00:29;100790.13;;;14.81;64.77
26697;BME280;14312;52.614;13.496;2023-03-21T14:03:15;100786.13;;;14.83;64.76
26697;BME280;14312;52.614;13.496;2023-03-21T14:06:02;100774.03;;;14.86;64.58
26697;BME280;14312;52.614;13.496;2023-03-21T14:08:49;100786.66;;;14.85;64.43
26697;BME280;14312;52.614;13.496;2023-03-21T14:11:35;100781.03;;;14.87;64.76
26697;BME280;14312;52.614;13.496;2023-03-21T14:14:24;100779.97;;;14.88;64.75
26697;BME280;14312;52.614;13.496;2023-03-21T14:17:22;100779.97;;;14.93;64.48
26697;BME280;14312;52.614;13.496;2023-03-21T14:20:15;100775.41;;;14.94;64.36
26697;BME280;14312;52.614;13.496;2023-03-21T14:23:05;100771.41;;;14.91;64.46
26697;BME280;14312;52.614;13.496;2023-03-21T14:25:51;100768.72;;;14.91;64.56
26697;BME280;14312;52.614;13.496;2023-03-21T14:28:41;100770.03;;;14.94;64.61
26697;BME280;14312;52.614;13.496;2023-03-21T14:31:31;100771.13;;;14.98;64.64
26697;BME280;14312;52.614;13.496;2023-03-21T14:34:18;100762.28;;;15.02;64.74
26697;BME280;14312;52.614;13.496;2023-03-21T14:37:09;100761.75;;;15.05;64.59
26697;BME280;14312;52.614;13.496;2023-03-21T14:39:57;100757.19;;;15.06;64.68
26697;BME280;14312;52.614;13.496;2023-03-21T14:42:46;100753.16;;;15.08;64.59
26697;BME280;14312;52.614;13.496;2023-03-21T14:45:34;100756.66;;;15.09;64.65
26697;BME280;14312;52.614;13.496;2023-03-21T14:48:32;100746.19;;;15.07;64.53
26697;BME280;14312;52.614;13.496;2023-03-21T14:51:18;100751.03;;;15.05;64.75
26697;BME280;14312;52.614;13.496;2023-03-21T14:54:04;100751.03;;;15.05;64.76
26697;BME280;14312;52.614;13.496;2023-03-21T14:56:54;100740.81;;;15.02;64.75
26697;BME280;14312;52.614;13.496;2023-03-21T14:59:41;100736.25;;;15.03;64.80
26697;BME280;14312;52.614;13.496;2023-03-21T15:02:34;100734.91;;;15.00;65.21
26697;BME280;14312;52.614;13.496;2023-03-21T15:05:28;100731.41;;;15.00;65.30
26697;BME280;14312;52.614;13.496;2023-03-21T15:08:18;100721.47;;;15.00;65.44
26697;BME280;14312;52.614;13.496;2023-03-21T15:11:06;100719.63;;;15.06;65.58
26697;BME280;14312;52.614;13.496;2023-03-21T15:13:54;100716.41;;;15.09;65.84
26697;BME280;14312;52.614;13.496;2023-03-21T15:16:40;100709.16;;;15.09;65.43
26697;BME280;14312;52.614;13.496;2023-03-21T15:19:36;100712.91;;;15.13;65.39
26697;BME280;14312;52.614;13.496;2023-03-21T15:22:40;100713.44;;;15.15;65.20
26697;BME280;14312;52.614;13.496;2023-03-21T15:25:29;100709.44;;;15.13;65.29
26697;BME280;14312;52.614;13.496;2023-03-21T15:28:17;100710.75;;;15.10;65.26
26697;BME280;14312;52.614;13.496;2023-03-21T15:31:03;100705.66;;;15.09;65.49
26697;BME280;14312;52.614;13.496;2023-03-21T15:33:52;100711.84;;;15.09;65.56
26697;BME280;14312;52.614;13.496;2023-03-21T15:36:47;100703.78;;;15.09;65.30
26697;BME280;14312;52.614;13.496;2023-03-21T15:39:34;100702.16;;;15.08;65.50
26697;BME280;14312;52.614;13.496;2023-03-21T15:42:33;100707.28;;;15.10;65.50
26697;BME280;14312;52.614;13.496;2023-03-21T15:45:25;100700.03;;;15.10;65.66
26697;BME280;14312;52.614;13.496;2023-03-21T15:48:12;100696.00;;;15.13;65.64
26697;BME280;14312;52.614;13.496;2023-03-21T15:51:05;100696.25;;;15.16;65.41
26697;BME280;14312;52.614;13.496;2023-03-21T15:53:52;100703.25;;;15.17;65.65
26697;BME280;14312;52.614;13.496;2023-03-21T15:56:39;100691.19;;;15.20;65.29
26697;BME280;14312;52.614;13.496;2023-03-21T15:59:30;100695.19;;;15.22;65.48
26697;BME280;14312;52.614;13.496;2023-03-21T16:02:19;100685.00;;;15.24;65.51
26697;BME280;14312;52.614;13.496;2023-03-21T16:08:26;100685.53;;;15.32;65.20
26697;BME280;14312;52.614;13.496;2023-03-21T16:14:09;100673.97;;;15.31;64.87
26697;BME280;14312;52.614;13.496;2023-03-21T16:16:55;100675.84;;;15.31;65.07
26697;BME280;14312;52.614;13.496;2023-03-21T16:19:41;100664.03;;;15.32;65.10